Indianola, Nebraska
Current Conditions -  °F | °C
As of 12:53 PM on Thursday 30 Oct 2014 (Local Time) from KMCK Reporting Station
Clear Clear  
Wind Chill: 66°   Ceiling: Unl
Heat Index: 66°   Visibility: 10mi
Dew Point: 30°   Wind: 20mph
Humidity: 26%   Direction: 360°N
Pressure: 30.26"   Gusts: 28mph
Location:  40.23°N, 100.42°W
Report Text: KMCK 301753Z AUTO 36017G24KT 10SM CLR 19/M01 A3026 RMK AO2 PK WND 36027/1740 SLP238 T01891011 10189 20033 50002
Loading
Personal Weather Stations






























Interactive Weather Map
Tropical Storm Tracking
New forecast layout! Learn more

10-Day Weather Forecast

Advertisements
Track Severe Weather on mobile